createdAt,value
2023-04-18T00:00:30.787Z,12.60
2023-04-18T00:03:00.160Z,7.20
2023-04-18T00:05:30.414Z,12.00
2023-04-18T00:07:57.869Z,7.00
2023-04-18T00:10:26.068Z,11.40
2023-04-18T00:12:53.760Z,6.40
2023-04-18T00:15:21.324Z,12.60
2023-04-18T00:17:49.249Z,12.40
2023-04-18T00:20:16.814Z,13.40
2023-04-18T00:22:46.832Z,14.20
2023-04-18T00:25:15.228Z,14.20
2023-04-18T00:27:42.642Z,12.00
2023-04-18T00:30:10.968Z,11.60
2023-04-18T00:32:38.976Z,12.60
2023-04-18T00:35:07.071Z,9.80
2023-04-18T00:37:34.581Z,10.80
2023-04-18T00:40:02.077Z,10.40
2023-04-18T00:42:29.834Z,14.60
2023-04-18T00:44:57.528Z,16.20
2023-04-18T00:47:25.396Z,11.40
2023-04-18T00:49:53.150Z,11.40
2023-04-18T00:52:21.869Z,15.60
2023-04-18T00:54:49.634Z,11.60
2023-04-18T00:57:17.418Z,14.00
2023-04-18T00:59:47.015Z,12.80
2023-04-18T01:02:14.636Z,8.40
2023-04-18T01:04:43.971Z,12.40
2023-04-18T01:07:12.047Z,17.00
2023-04-18T01:09:40.668Z,13.40
2023-04-18T01:12:08.502Z,17.40
2023-04-18T01:14:36.095Z,16.60
2023-04-18T01:17:04.072Z,11.00
2023-04-18T01:19:32.018Z,18.80
2023-04-18T01:21:59.828Z,10.80
2023-04-18T01:24:29.981Z,3.40
2023-04-18T01:26:57.858Z,15.00
2023-04-18T01:29:27.154Z,12.60
2023-04-18T01:31:54.936Z,11.00
2023-04-18T01:34:22.397Z,10.40
2023-04-18T01:36:50.030Z,11.60
2023-04-18T01:39:18.718Z,7.80
2023-04-18T01:41:46.344Z,12.00
2023-04-18T01:44:14.312Z,13.60
2023-04-18T01:46:41.798Z,12.60
2023-04-18T01:49:10.060Z,12.00
2023-04-18T01:51:39.253Z,10.40
2023-04-18T01:54:06.774Z,8.40
2023-04-18T01:56:34.450Z,8.20
2023-04-18T01:59:04.451Z,12.00
2023-04-18T02:01:32.508Z,13.80
2023-04-18T02:04:00.201Z,10.40
2023-04-18T02:06:27.821Z,8.20
2023-04-18T02:08:55.474Z,11.40
2023-04-18T02:11:25.682Z,8.80
2023-04-18T02:13:53.151Z,12.20
2023-04-18T02:16:20.863Z,11.00
2023-04-18T02:18:49.982Z,9.60
2023-04-18T02:21:17.547Z,8.60
2023-04-18T02:23:45.256Z,4.20
2023-04-18T02:26:12.709Z,10.20
2023-04-18T02:28:40.275Z,13.40
2023-04-18T02:31:14.761Z,8.00
2023-04-18T02:33:43.629Z,10.40
2023-04-18T02:36:13.139Z,12.00
2023-04-18T02:38:42.162Z,9.40
2023-04-18T02:41:15.321Z,7.80
2023-04-18T02:43:43.089Z,7.20
2023-04-18T02:46:10.620Z,7.60
2023-04-18T02:48:38.452Z,9.80
2023-04-18T02:51:08.802Z,6.20
2023-04-18T02:53:38.454Z,15.20
2023-04-18T02:56:06.661Z,14.00
2023-04-18T02:59:07.517Z,16.40
2023-04-18T03:02:06.773Z,6.40
2023-04-18T03:04:35.872Z,17.00
2023-04-18T03:07:06.223Z,9.00
2023-04-18T03:09:36.819Z,3.20
2023-04-18T03:12:13.111Z,14.00
2023-04-18T03:14:42.177Z,8.40
2023-04-18T03:17:09.655Z,13.00
2023-04-18T03:19:41.214Z,18.40
2023-04-18T03:22:11.145Z,10.60
2023-04-18T03:24:46.381Z,12.80
2023-04-18T03:27:14.520Z,12.60
2023-04-18T03:29:44.437Z,12.00
2023-04-18T03:32:12.834Z,10.40
2023-04-18T03:34:40.294Z,12.80
2023-04-18T03:37:09.957Z,8.20
2023-04-18T03:39:43.495Z,12.60
2023-04-18T03:42:11.105Z,13.00
2023-04-18T03:44:39.723Z,10.40
2023-04-18T03:47:07.755Z,17.20
2023-04-18T03:49:39.570Z,14.40
2023-04-18T03:52:06.901Z,7.80
2023-04-18T03:54:34.349Z,10.00
2023-04-18T03:57:03.204Z,14.40
2023-04-18T03:59:31.816Z,13.40
2023-04-18T04:01:59.398Z,13.20
2023-04-18T04:04:27.065Z,14.60
2023-04-18T04:06:54.709Z,15.40
2023-04-18T04:09:22.152Z,13.60
2023-04-18T04:11:50.959Z,16.00
2023-04-18T04:14:18.913Z,15.20
2023-04-18T04:16:47.035Z,16.80
2023-04-18T04:19:16.925Z,15.60
2023-04-18T04:22:07.490Z,14.20
2023-04-18T04:24:35.691Z,16.20
2023-04-18T04:27:04.218Z,16.00
2023-04-18T04:29:35.514Z,13.40
2023-04-18T04:32:04.096Z,14.60
2023-04-18T04:34:37.067Z,9.20
2023-04-18T04:37:08.402Z,11.40
2023-04-18T04:39:42.662Z,18.00
2023-04-18T04:42:28.818Z,13.40
2023-04-18T04:45:10.744Z,14.00
2023-04-18T04:47:38.568Z,17.00
2023-04-18T04:50:08.084Z,13.40
2023-04-18T04:52:35.760Z,13.80
2023-04-18T04:55:04.173Z,16.80
2023-04-18T04:57:31.785Z,13.60
2023-04-18T04:59:59.410Z,15.40
2023-04-18T05:02:28.335Z,14.60
2023-04-18T05:04:56.199Z,16.80
2023-04-18T05:07:23.758Z,14.00
2023-04-18T05:09:53.690Z,13.75
2023-04-18T05:12:21.252Z,16.25
2023-04-18T05:14:48.811Z,14.00
2023-04-18T05:17:16.511Z,17.25
2023-04-18T05:19:44.475Z,14.75
2023-04-18T05:22:11.845Z,15.00
2023-04-18T05:24:39.863Z,13.00
2023-04-18T05:27:07.885Z,13.50
2023-04-18T05:29:35.421Z,15.00
2023-04-18T05:32:02.940Z,14.50
2023-04-18T05:34:31.263Z,15.00
2023-04-18T05:36:58.942Z,12.00
2023-04-18T05:39:26.437Z,14.00
2023-04-18T05:41:54.006Z,12.80
2023-04-18T05:44:21.912Z,14.60
2023-04-18T05:46:51.606Z,14.40
2023-04-18T05:49:19.772Z,15.20
2023-04-18T05:51:50.024Z,14.60
2023-04-18T05:54:17.687Z,9.40
2023-04-18T05:56:45.763Z,16.00
2023-04-18T05:59:14.110Z,16.20
2023-04-18T06:01:41.527Z,16.00
2023-04-18T06:04:09.630Z,13.60
2023-04-18T06:06:37.514Z,16.40
2023-04-18T06:09:05.510Z,15.40
2023-04-18T06:11:33.981Z,16.20
2023-04-18T06:14:02.023Z,18.20
2023-04-18T06:16:29.692Z,14.00
2023-04-18T06:19:00.947Z,15.60
2023-04-18T06:21:29.239Z,12.40
2023-04-18T06:23:56.716Z,16.40
2023-04-18T06:26:24.962Z,17.80
2023-04-18T06:28:52.534Z,13.20
2023-04-18T06:31:20.188Z,15.40
2023-04-18T06:33:47.853Z,12.00
2023-04-18T06:36:15.614Z,14.20
2023-04-18T06:38:43.291Z,13.80
2023-04-18T06:41:10.891Z,17.00
2023-04-18T06:43:38.503Z,16.60
2023-04-18T06:46:06.819Z,14.60
2023-04-18T06:48:34.616Z,17.00
2023-04-18T06:51:02.476Z,16.40
2023-04-18T06:53:30.294Z,16.40
2023-04-18T06:55:57.968Z,19.00
2023-04-18T06:58:25.653Z,17.20
2023-04-18T07:00:53.242Z,15.60
2023-04-18T07:03:21.006Z,14.00
2023-04-18T07:05:48.706Z,14.00
2023-04-18T07:08:16.525Z,14.40
2023-04-18T07:10:43.769Z,16.60
2023-04-18T07:13:11.337Z,12.40
2023-04-18T07:15:39.124Z,6.00
2023-04-18T07:18:06.646Z,10.60
2023-04-18T07:20:33.899Z,7.60
2023-04-18T07:23:01.095Z,9.00
2023-04-18T07:25:28.422Z,7.20
2023-04-18T07:27:56.290Z,12.20
2023-04-18T07:30:23.941Z,9.20
2023-04-18T07:32:51.606Z,10.80
2023-04-18T07:35:19.375Z,10.80
2023-04-18T07:37:47.316Z,11.00
2023-04-18T07:40:14.837Z,9.20
2023-04-18T07:42:44.029Z,11.00
2023-04-18T07:45:11.911Z,10.40
2023-04-18T07:47:39.452Z,9.40
2023-04-18T07:50:07.732Z,9.80
2023-04-18T07:52:36.323Z,9.60
2023-04-18T07:55:04.991Z,9.00
2023-04-18T07:57:32.343Z,7.60
2023-04-18T07:59:59.834Z,9.20
2023-04-18T08:02:27.675Z,5.80
2023-04-18T08:04:56.458Z,8.40
2023-04-18T08:07:23.887Z,9.00
2023-04-18T08:09:51.554Z,9.80
2023-04-18T08:12:18.863Z,7.60
2023-04-18T08:14:46.286Z,9.00
2023-04-18T08:17:14.468Z,6.80
2023-04-18T08:19:42.125Z,4.60
2023-04-18T08:22:11.606Z,5.60
2023-04-18T08:24:40.126Z,8.20
2023-04-18T08:27:07.925Z,8.80
2023-04-18T08:29:35.732Z,8.80
2023-04-18T08:32:03.829Z,5.80
2023-04-18T08:34:34.670Z,5.00
2023-04-18T08:37:02.592Z,8.00
2023-04-18T08:39:31.410Z,10.00
2023-04-18T08:42:00.762Z,6.00
2023-04-18T08:44:29.561Z,4.60
2023-04-18T08:46:57.911Z,9.00
2023-04-18T08:49:26.268Z,10.00
2023-04-18T08:51:54.114Z,10.00
2023-04-18T08:54:22.832Z,5.00
2023-04-18T08:57:12.843Z,5.00
2023-04-18T08:59:43.207Z,6.00
2023-04-18T09:02:12.886Z,9.60
2023-04-18T09:04:45.128Z,5.80
2023-04-18T09:07:17.261Z,6.60
2023-04-18T09:09:50.360Z,7.20
2023-04-18T09:12:22.823Z,6.60
2023-04-18T09:14:57.748Z,8.00
2023-04-18T09:17:31.951Z,3.60
2023-04-18T09:20:01.706Z,6.60
2023-04-18T09:22:48.963Z,7.80
2023-04-18T09:25:35.105Z,4.80
2023-04-18T09:28:03.787Z,3.00
2023-04-18T09:30:33.111Z,6.40
2023-04-18T09:33:06.137Z,3.20
2023-04-18T09:35:33.821Z,4.00
2023-04-18T09:38:01.069Z,4.00
2023-04-18T09:40:28.490Z,3.20
2023-04-18T09:42:56.026Z,3.00
2023-04-18T09:45:24.594Z,3.00
2023-04-18T09:47:53.300Z,3.00
2023-04-18T09:50:21.194Z,3.00
2023-04-18T09:52:49.333Z,2.00
2023-04-18T09:55:20.398Z,3.20
2023-04-18T09:57:49.159Z,4.00
2023-04-18T10:00:20.574Z,3.60
2023-04-18T10:02:54.572Z,5.00
2023-04-18T10:05:26.446Z,2.60
2023-04-18T10:07:55.159Z,5.00
2023-04-18T10:10:22.731Z,4.40
2023-04-18T10:12:53.468Z,3.60
2023-04-18T10:15:23.260Z,5.00
2023-04-18T10:18:14.460Z,2.00
2023-04-18T10:20:42.669Z,3.00
2023-04-18T10:23:32.132Z,6.00
2023-04-18T10:25:59.969Z,6.00
2023-04-18T10:28:28.520Z,5.25
2023-04-18T10:31:04.165Z,5.00
2023-04-18T10:33:41.029Z,7.25
2023-04-18T10:36:10.216Z,4.00
2023-04-18T10:38:45.572Z,5.00
2023-04-18T10:41:22.047Z,5.00
2023-04-18T10:44:08.710Z,4.00
2023-04-18T10:46:41.077Z,3.50
2023-04-18T10:49:27.351Z,3.25
2023-04-18T10:52:00.504Z,6.00
2023-04-18T10:54:36.010Z,4.50
2023-04-18T10:57:05.388Z,6.00
2023-04-18T10:59:34.594Z,4.25
2023-04-18T11:02:27.561Z,6.75
2023-04-18T11:04:57.551Z,4.75
2023-04-18T11:07:40.197Z,3.00
2023-04-18T11:10:10.175Z,5.00
2023-04-18T11:12:39.914Z,5.50
2023-04-18T11:15:12.753Z,5.00
2023-04-18T11:17:41.114Z,6.50
2023-04-18T11:20:11.666Z,5.00
2023-04-18T11:22:57.006Z,5.00
2023-04-18T11:25:30.336Z,7.00
2023-04-18T11:28:00.473Z,5.00
2023-04-18T11:30:31.678Z,5.00
2023-04-18T11:32:59.312Z,5.50
2023-04-18T11:35:27.106Z,4.50
2023-04-18T11:37:55.087Z,3.00
2023-04-18T11:40:22.604Z,3.50
2023-04-18T11:42:50.167Z,4.00
2023-04-18T11:45:17.581Z,8.00
2023-04-18T11:47:46.710Z,7.00
2023-04-18T11:50:14.556Z,6.25
2023-04-18T11:52:43.082Z,8.00
2023-04-18T11:55:21.409Z,8.50
2023-04-18T11:57:53.208Z,5.50
2023-04-18T12:00:34.587Z,9.50
2023-04-18T12:03:09.064Z,7.25
2023-04-18T12:05:38.988Z,11.50
2023-04-18T12:08:19.323Z,8.50
2023-04-18T12:10:52.233Z,5.75
2023-04-18T12:13:26.746Z,8.00
2023-04-18T12:15:54.892Z,7.00
2023-04-18T12:18:24.986Z,7.75
2023-04-18T12:20:54.531Z,7.00
2023-04-18T12:23:36.225Z,6.00
2023-04-18T12:26:06.539Z,6.25
2023-04-18T12:28:36.805Z,7.00
2023-04-18T12:31:08.080Z,5.75
2023-04-18T12:33:37.002Z,5.75
2023-04-18T12:36:05.864Z,8.00
2023-04-18T12:38:33.383Z,5.50
2023-04-18T12:41:00.815Z,4.25
2023-04-18T12:43:28.452Z,6.00
2023-04-18T12:45:56.087Z,8.25
2023-04-18T12:48:23.465Z,5.00
2023-04-18T12:50:51.294Z,4.75
2023-04-18T12:53:18.754Z,4.50
2023-04-18T12:55:46.453Z,6.00
2023-04-18T12:58:18.939Z,3.50
2023-04-18T13:00:46.698Z,6.25
2023-04-18T13:03:14.315Z,6.20
2023-04-18T13:05:41.964Z,5.75
2023-04-18T13:08:17.257Z,6.00
2023-04-18T13:10:47.848Z,3.25
2023-04-18T13:13:15.409Z,5.75
2023-04-18T13:15:42.880Z,5.50
2023-04-18T13:18:10.254Z,6.00
2023-04-18T13:20:37.817Z,4.00
2023-04-18T13:23:05.440Z,4.50
2023-04-18T13:25:32.930Z,7.00
2023-04-18T13:28:01.240Z,4.25
2023-04-18T13:30:28.692Z,7.00
2023-04-18T13:32:56.967Z,6.80
2023-04-18T13:35:24.318Z,6.40
2023-04-18T13:37:51.645Z,5.20
2023-04-18T13:40:18.912Z,5.00
2023-04-18T13:42:46.175Z,6.00
2023-04-18T13:45:13.775Z,6.00
2023-04-18T13:47:41.389Z,6.00
2023-04-18T13:50:09.805Z,5.25
2023-04-18T13:52:37.436Z,6.60
2023-04-18T13:55:05.125Z,5.20
2023-04-18T13:57:33.744Z,5.00
2023-04-18T14:00:01.686Z,4.75
2023-04-18T14:02:39.489Z,7.00
2023-04-18T14:05:08.053Z,4.80
2023-04-18T14:07:35.779Z,4.60
2023-04-18T14:10:03.136Z,6.60
2023-04-18T14:12:31.607Z,4.80
2023-04-18T14:14:59.388Z,2.80
2023-04-18T14:17:26.983Z,6.00
2023-04-18T14:19:54.631Z,5.20
2023-04-18T14:22:21.968Z,6.00
2023-04-18T14:24:52.559Z,7.20
2023-04-18T14:27:20.484Z,6.40
2023-04-18T14:29:49.141Z,7.00
2023-04-18T14:32:16.742Z,6.00
2023-04-18T14:34:44.302Z,5.40
2023-04-18T14:37:11.935Z,6.00
2023-04-18T14:39:39.499Z,4.80
2023-04-18T14:42:09.919Z,7.20
2023-04-18T14:44:37.498Z,4.80
2023-04-18T14:47:05.023Z,4.60
2023-04-18T14:49:33.810Z,5.60
2023-04-18T14:52:01.222Z,5.00
2023-04-18T14:54:29.277Z,5.00
2023-04-18T14:56:57.724Z,6.00
2023-04-18T14:59:28.159Z,6.60
2023-04-18T15:01:55.664Z,5.80
2023-04-18T15:04:23.347Z,4.00
2023-04-18T15:06:50.880Z,5.00
2023-04-18T15:09:18.097Z,5.80
2023-04-18T15:11:45.460Z,5.40
2023-04-18T15:14:13.151Z,6.00
2023-04-18T15:16:41.021Z,4.20
2023-04-18T15:19:08.392Z,5.80
2023-04-18T15:21:35.852Z,4.80
2023-04-18T15:24:03.473Z,4.00
2023-04-18T15:26:33.008Z,5.40
2023-04-18T15:29:03.986Z,6.00
2023-04-18T15:31:31.497Z,4.40
2023-04-18T15:33:58.937Z,6.00
2023-04-18T15:36:27.894Z,7.40
2023-04-18T15:38:55.250Z,4.40
2023-04-18T15:41:22.518Z,6.00
2023-04-18T15:43:49.713Z,5.80
2023-04-18T15:46:17.104Z,7.20
2023-04-18T15:48:44.373Z,4.00
2023-04-18T15:51:11.873Z,5.00
2023-04-18T15:53:39.198Z,6.40
2023-04-18T15:56:06.912Z,6.00
2023-04-18T15:58:34.296Z,3.20
2023-04-18T16:01:02.253Z,5.80
2023-04-18T16:03:30.286Z,2.80
2023-04-18T16:05:57.877Z,5.00
2023-04-18T16:08:25.148Z,7.40
2023-04-18T16:10:53.371Z,5.40
2023-04-18T16:13:20.792Z,4.60
2023-04-18T16:15:48.370Z,6.80
2023-04-18T16:18:15.802Z,5.00
2023-04-18T16:20:43.241Z,5.60
2023-04-18T16:23:10.510Z,5.00
2023-04-18T16:25:38.061Z,5.80
2023-04-18T16:28:05.491Z,5.60
2023-04-18T16:30:32.770Z,6.00
2023-04-18T16:33:00.365Z,10.00
2023-04-18T16:35:27.801Z,5.00
2023-04-18T16:37:55.238Z,4.80
2023-04-18T16:40:22.548Z,8.00
2023-04-18T16:42:49.897Z,7.00
2023-04-18T16:45:17.471Z,6.40
2023-04-18T16:47:44.977Z,3.80
2023-04-18T16:50:12.254Z,5.60
2023-04-18T16:52:40.125Z,6.20
2023-04-18T16:55:07.923Z,4.00
2023-04-18T16:57:35.155Z,7.00
2023-04-18T17:00:03.151Z,6.40
2023-04-18T17:02:31.148Z,8.00
2023-04-18T17:04:58.752Z,4.60
2023-04-18T17:07:26.450Z,4.40
2023-04-18T17:09:53.872Z,3.00
2023-04-18T17:12:21.221Z,7.80
2023-04-18T17:14:48.520Z,5.40
2023-04-18T17:17:16.254Z,6.80
2023-04-18T17:19:43.508Z,5.20
2023-04-18T17:22:11.348Z,6.00
2023-04-18T17:24:38.605Z,5.00
2023-04-18T17:27:05.813Z,6.20
2023-04-18T17:29:33.187Z,7.80
2023-04-18T17:32:00.551Z,7.20
2023-04-18T17:34:29.265Z,6.40
2023-04-18T17:36:57.067Z,6.00
2023-04-18T17:39:24.397Z,8.60
2023-04-18T17:41:51.644Z,6.40
2023-04-18T17:44:18.879Z,7.20
2023-04-18T17:46:47.380Z,7.80
2023-04-18T17:49:16.562Z,7.80
2023-04-18T17:51:44.089Z,5.40
2023-04-18T17:54:13.390Z,7.40
2023-04-18T17:56:40.989Z,7.40
2023-04-18T17:59:09.981Z,6.60
2023-04-18T18:01:38.478Z,7.20
2023-04-18T18:04:05.979Z,6.00
2023-04-18T18:06:33.350Z,5.40
2023-04-18T18:09:00.595Z,6.00
2023-04-18T18:11:27.889Z,9.20
2023-04-18T18:13:57.543Z,6.20
2023-04-18T18:16:25.209Z,6.80
2023-04-18T18:18:52.674Z,7.40
2023-04-18T18:21:20.086Z,4.00
2023-04-18T18:23:47.311Z,7.80
2023-04-18T18:26:14.790Z,8.20
2023-04-18T18:28:42.103Z,7.60
2023-04-18T18:31:09.419Z,9.20
2023-04-18T18:33:36.772Z,6.40
2023-04-18T18:36:04.341Z,6.00
2023-04-18T18:38:31.668Z,4.00
2023-04-18T18:41:01.688Z,9.00
2023-04-18T18:43:31.157Z,12.40
2023-04-18T18:45:58.585Z,11.80
2023-04-18T18:48:28.101Z,6.20
2023-04-18T18:50:56.722Z,8.40
2023-04-18T18:53:24.155Z,7.20
2023-04-18T18:55:51.455Z,9.80
2023-04-18T18:58:18.807Z,10.60
2023-04-18T19:00:47.093Z,7.40
2023-04-18T19:03:14.617Z,7.60
2023-04-18T19:05:42.040Z,7.80
2023-04-18T19:08:09.547Z,7.20
2023-04-18T19:10:37.057Z,6.00
2023-04-18T19:13:04.514Z,8.00
2023-04-18T19:15:31.749Z,8.00
2023-04-18T19:17:59.364Z,10.40
2023-04-18T19:20:28.800Z,7.40
2023-04-18T19:22:56.710Z,9.00
2023-04-18T19:25:24.088Z,8.00
2023-04-18T19:27:51.608Z,8.60
2023-04-18T19:30:18.890Z,8.00
2023-04-18T19:32:47.110Z,8.80
2023-04-18T19:35:14.513Z,6.40
2023-04-18T19:37:43.118Z,6.60
2023-04-18T19:40:11.158Z,6.00
2023-04-18T19:42:38.592Z,7.80
2023-04-18T19:45:06.565Z,7.00
2023-04-18T19:47:34.198Z,2.60
2023-04-18T19:50:02.160Z,3.00
2023-04-18T19:52:29.862Z,3.60
2023-04-18T19:54:57.482Z,7.00
2023-04-18T19:57:26.590Z,7.60
2023-04-18T19:59:54.087Z,4.80
2023-04-18T20:02:21.901Z,3.00
2023-04-18T20:04:50.047Z,6.20
2023-04-18T20:07:17.871Z,9.40
2023-04-18T20:09:45.614Z,6.80
2023-04-18T20:12:13.303Z,9.60
2023-04-18T20:14:41.001Z,6.20
2023-04-18T20:17:08.680Z,6.00
2023-04-18T20:19:36.683Z,6.20
2023-04-18T20:22:04.483Z,6.40
2023-04-18T20:24:35.363Z,5.60
2023-04-18T20:27:03.360Z,5.80
2023-04-18T20:29:30.934Z,6.00
2023-04-18T20:31:58.639Z,6.80
2023-04-18T20:34:26.005Z,7.20
2023-04-18T20:36:53.544Z,5.60
2023-04-18T20:39:21.045Z,5.00
2023-04-18T20:41:51.681Z,5.40
2023-04-18T20:44:22.577Z,5.80
2023-04-18T20:46:50.171Z,2.40
2023-04-18T20:49:17.705Z,5.60
2023-04-18T20:51:45.497Z,4.20
2023-04-18T20:54:13.411Z,5.00
2023-04-18T20:56:41.364Z,6.00
2023-04-18T20:59:08.946Z,5.00
2023-04-18T21:01:37.233Z,6.80
2023-04-18T21:04:05.464Z,5.60
2023-04-18T21:06:33.122Z,2.40
2023-04-18T21:09:00.697Z,6.00
2023-04-18T21:11:28.163Z,5.00
2023-04-18T21:13:55.664Z,2.00
2023-04-18T21:16:24.319Z,6.00
2023-04-18T21:18:51.802Z,5.00
2023-04-18T21:21:19.572Z,6.00
2023-04-18T21:23:47.250Z,5.40
2023-04-18T21:26:14.819Z,5.00
2023-04-18T21:29:03.048Z,3.00
2023-04-18T21:31:32.073Z,4.20
2023-04-18T21:34:03.738Z,6.00
2023-04-18T21:36:32.009Z,3.00
2023-04-18T21:39:01.280Z,5.40
2023-04-18T21:41:28.977Z,5.00
2023-04-18T21:43:56.525Z,5.80
2023-04-18T21:46:23.901Z,5.00
2023-04-18T21:48:51.482Z,3.20
2023-04-18T21:51:18.901Z,3.00
2023-04-18T21:53:46.630Z,2.20
2023-04-18T21:56:14.523Z,7.00
2023-04-18T21:58:42.085Z,3.00
2023-04-18T22:01:09.603Z,5.00
2023-04-18T22:03:37.413Z,3.60
2023-04-18T22:06:05.497Z,3.40
2023-04-18T22:08:32.912Z,5.00
2023-04-18T22:11:00.641Z,5.60
2023-04-18T22:13:33.335Z,5.20
2023-04-18T22:16:05.117Z,6.00
2023-04-18T22:18:36.909Z,4.80
2023-04-18T22:21:06.406Z,5.00
2023-04-18T22:23:33.837Z,2.20
2023-04-18T22:26:01.579Z,3.00
2023-04-18T22:28:29.245Z,4.40
2023-04-18T22:30:57.028Z,5.80
2023-04-18T22:33:25.095Z,5.40
2023-04-18T22:35:52.846Z,3.00
2023-04-18T22:38:20.634Z,3.40
2023-04-18T22:40:48.087Z,5.00
2023-04-18T22:43:15.652Z,4.40
2023-04-18T22:45:43.092Z,5.00
2023-04-18T22:48:13.035Z,2.00
2023-04-18T22:50:43.376Z,3.00
2023-04-18T22:53:11.423Z,7.00
2023-04-18T22:55:42.079Z,4.60
2023-04-18T22:58:10.868Z,3.40
2023-04-18T23:00:38.909Z,3.40
2023-04-18T23:03:06.572Z,2.20
2023-04-18T23:05:34.709Z,4.20
2023-04-18T23:08:02.428Z,5.60
2023-04-18T23:10:30.146Z,5.20
2023-04-18T23:12:57.641Z,4.20
2023-04-18T23:15:26.528Z,3.20
2023-04-18T23:17:54.512Z,3.40
2023-04-18T23:20:24.126Z,2.00
2023-04-18T23:22:52.070Z,2.80
2023-04-18T23:25:20.104Z,0.40
2023-04-18T23:27:48.197Z,3.40
2023-04-18T23:30:15.892Z,2.00
2023-04-18T23:32:43.524Z,3.80
2023-04-18T23:35:11.746Z,5.20
2023-04-18T23:37:39.170Z,3.00
2023-04-18T23:40:08.224Z,3.00
2023-04-18T23:42:36.214Z,4.80
2023-04-18T23:45:04.436Z,2.40
2023-04-18T23:47:32.177Z,5.00
2023-04-18T23:49:59.685Z,3.80
2023-04-18T23:52:27.106Z,3.00
2023-04-18T23:54:54.570Z,3.40
2023-04-18T23:57:22.115Z,3.60
2023-04-18T23:59:49.502Z,4.20
